sensor_id;sensor_type;location;lat;lon;timestamp;temperature;humidity
15156;DHT22;7678;50.058;8.306;2022-12-18T00:00:22;-7.70;99.90
15156;DHT22;7678;50.058;8.306;2022-12-18T00:02:50;-8.00;99.90
15156;DHT22;7678;50.058;8.306;2022-12-18T00:05:20;-7.90;99.90
15156;DHT22;7678;50.058;8.306;2022-12-18T00:07:50;-7.70;99.90
15156;DHT22;7678;50.058;8.306;2022-12-18T00:10:23;-7.90;99.90
15156;DHT22;7678;50.058;8.306;2022-12-18T00:12:54;-7.90;99.90
15156;DHT22;7678;50.058;8.306;2022-12-18T00:15:22;-7.80;99.90
15156;DHT22;7678;50.058;8.306;2022-12-18T00:17:50;-7.90;99.90
15156;DHT22;7678;50.058;8.306;2022-12-18T00:20:20;-8.20;99.90
15156;DHT22;7678;50.058;8.306;2022-12-18T00:22:55;-8.20;99.90
15156;DHT22;7678;50.058;8.306;2022-12-18T00:25:23;-7.90;99.90
15156;DHT22;7678;50.058;8.306;2022-12-18T00:27:52;-7.70;99.90
15156;DHT22;7678;50.058;8.306;2022-12-18T00:30:23;-7.90;99.90
15156;DHT22;7678;50.058;8.306;2022-12-18T00:32:53;-8.00;99.90
15156;DHT22;7678;50.058;8.306;2022-12-18T00:35:29;-7.90;99.90
15156;DHT22;7678;50.058;8.306;2022-12-18T00:37:58;-7.80;99.90
15156;DHT22;7678;50.058;8.306;2022-12-18T00:40:28;-7.60;99.90
15156;DHT22;7678;50.058;8.306;2022-12-18T00:43:03;-7.70;99.90
15156;DHT22;7678;50.058;8.306;2022-12-18T00:45:31;-7.50;99.90
15156;DHT22;7678;50.058;8.306;2022-12-18T00:48:03;-7.80;99.90
15156;DHT22;7678;50.058;8.306;2022-12-18T00:50:34;-8.00;99.90
15156;DHT22;7678;50.058;8.306;2022-12-18T00:53:02;-8.10;99.90
15156;DHT22;7678;50.058;8.306;2022-12-18T00:55:32;-7.90;99.90
15156;DHT22;7678;50.058;8.306;2022-12-18T00:58:01;-8.00;99.90
15156;DHT22;7678;50.058;8.306;2022-12-18T01:00:29;-7.90;99.90
15156;DHT22;7678;50.058;8.306;2022-12-18T01:02:57;-7.50;99.90
15156;DHT22;7678;50.058;8.306;2022-12-18T01:05:26;-7.60;99.90
15156;DHT22;7678;50.058;8.306;2022-12-18T01:07:55;-7.60;99.90
15156;DHT22;7678;50.058;8.306;2022-12-18T01:10:25;-7.80;99.90
15156;DHT22;7678;50.058;8.306;2022-12-18T01:12:56;-7.70;99.90
15156;DHT22;7678;50.058;8.306;2022-12-18T01:15:26;-7.70;99.90
15156;DHT22;7678;50.058;8.306;2022-12-18T01:17:55;-8.00;99.90
15156;DHT22;7678;50.058;8.306;2022-12-18T01:20:28;-8.10;99.90
15156;DHT22;7678;50.058;8.306;2022-12-18T01:23:01;-8.10;99.90
15156;DHT22;7678;50.058;8.306;2022-12-18T01:25:35;-8.30;99.90
15156;DHT22;7678;50.058;8.306;2022-12-18T01:28:03;-8.00;99.90
15156;DHT22;7678;50.058;8.306;2022-12-18T01:30:32;-8.40;99.90
15156;DHT22;7678;50.058;8.306;2022-12-18T01:33:00;-8.30;99.90
15156;DHT22;7678;50.058;8.306;2022-12-18T01:35:31;-8.40;99.90
15156;DHT22;7678;50.058;8.306;2022-12-18T01:37:58;-8.30;99.90
15156;DHT22;7678;50.058;8.306;2022-12-18T01:40:28;-8.30;99.90
15156;DHT22;7678;50.058;8.306;2022-12-18T01:42:59;-8.30;99.90
15156;DHT22;7678;50.058;8.306;2022-12-18T01:45:29;-8.40;99.90
15156;DHT22;7678;50.058;8.306;2022-12-18T01:48:04;-8.50;99.90
15156;DHT22;7678;50.058;8.306;2022-12-18T01:50:38;-8.40;99.90
15156;DHT22;7678;50.058;8.306;2022-12-18T01:53:14;-8.60;99.90
15156;DHT22;7678;50.058;8.306;2022-12-18T01:55:47;-8.50;99.90
15156;DHT22;7678;50.058;8.306;2022-12-18T01:58:18;-8.30;99.90
15156;DHT22;7678;50.058;8.306;2022-12-18T02:00:50;-8.40;99.90
15156;DHT22;7678;50.058;8.306;2022-12-18T02:03:19;-8.40;99.90
15156;DHT22;7678;50.058;8.306;2022-12-18T02:05:56;-8.50;99.90
15156;DHT22;7678;50.058;8.306;2022-12-18T02:08:33;-8.60;99.90
15156;DHT22;7678;50.058;8.306;2022-12-18T02:11:06;-8.70;99.90
15156;DHT22;7678;50.058;8.306;2022-12-18T02:13:41;-8.60;99.90
15156;DHT22;7678;50.058;8.306;2022-12-18T02:16:19;-8.70;99.90
15156;DHT22;7678;50.058;8.306;2022-12-18T02:18:55;-8.80;99.90
15156;DHT22;7678;50.058;8.306;2022-12-18T02:21:31;-8.60;99.90
15156;DHT22;7678;50.058;8.306;2022-12-18T02:24:15;-8.80;99.90
15156;DHT22;7678;50.058;8.306;2022-12-18T02:26:49;-8.70;99.90
15156;DHT22;7678;50.058;8.306;2022-12-18T02:29:22;-8.60;99.90
15156;DHT22;7678;50.058;8.306;2022-12-18T02:31:57;-8.60;99.90
15156;DHT22;7678;50.058;8.306;2022-12-18T02:34:32;-8.60;99.90
15156;DHT22;7678;50.058;8.306;2022-12-18T02:37:09;-8.50;99.90
15156;DHT22;7678;50.058;8.306;2022-12-18T02:39:41;-8.70;99.90
15156;DHT22;7678;50.058;8.306;2022-12-18T02:42:12;-8.80;99.90
15156;DHT22;7678;50.058;8.306;2022-12-18T02:44:44;-8.90;99.90
15156;DHT22;7678;50.058;8.306;2022-12-18T02:47:14;-8.60;99.90
15156;DHT22;7678;50.058;8.306;2022-12-18T02:49:49;-8.70;99.90
15156;DHT22;7678;50.058;8.306;2022-12-18T02:52:27;-8.90;99.90
15156;DHT22;7678;50.058;8.306;2022-12-18T02:55:13;-8.50;99.90
15156;DHT22;7678;50.058;8.306;2022-12-18T02:57:48;-8.50;99.90
15156;DHT22;7678;50.058;8.306;2022-12-18T03:00:22;-8.60;99.90
15156;DHT22;7678;50.058;8.306;2022-12-18T03:02:56;-8.80;99.90
15156;DHT22;7678;50.058;8.306;2022-12-18T03:05:30;-9.00;99.90
15156;DHT22;7678;50.058;8.306;2022-12-18T03:08:03;-8.90;99.90
15156;DHT22;7678;50.058;8.306;2022-12-18T03:10:39;-9.10;99.90
15156;DHT22;7678;50.058;8.306;2022-12-18T03:13:14;-9.00;99.90
15156;DHT22;7678;50.058;8.306;2022-12-18T03:15:50;-8.90;99.90
15156;DHT22;7678;50.058;8.306;2022-12-18T03:18:24;-9.00;99.90
15156;DHT22;7678;50.058;8.306;2022-12-18T03:20:58;-8.80;99.90
15156;DHT22;7678;50.058;8.306;2022-12-18T03:23:40;-8.80;99.90
15156;DHT22;7678;50.058;8.306;2022-12-18T03:26:15;-8.70;99.90
15156;DHT22;7678;50.058;8.306;2022-12-18T03:28:48;-8.70;99.90
15156;DHT22;7678;50.058;8.306;2022-12-18T03:31:18;-8.90;99.90
15156;DHT22;7678;50.058;8.306;2022-12-18T03:33:54;-8.70;99.90
15156;DHT22;7678;50.058;8.306;2022-12-18T03:36:25;-8.70;99.90
15156;DHT22;7678;50.058;8.306;2022-12-18T03:39:00;-8.40;99.90
15156;DHT22;7678;50.058;8.306;2022-12-18T03:41:31;-8.50;99.90
15156;DHT22;7678;50.058;8.306;2022-12-18T03:44:07;-8.50;99.90
15156;DHT22;7678;50.058;8.306;2022-12-18T03:46:41;-8.60;99.90
15156;DHT22;7678;50.058;8.306;2022-12-18T03:49:16;-8.70;99.90
15156;DHT22;7678;50.058;8.306;2022-12-18T03:51:51;-8.60;99.90
15156;DHT22;7678;50.058;8.306;2022-12-18T03:54:21;-8.80;99.90
15156;DHT22;7678;50.058;8.306;2022-12-18T03:56:54;-8.80;99.90
15156;DHT22;7678;50.058;8.306;2022-12-18T03:59:26;-8.70;99.90
15156;DHT22;7678;50.058;8.306;2022-12-18T04:01:56;-8.50;99.90
15156;DHT22;7678;50.058;8.306;2022-12-18T04:04:27;-8.30;99.90
15156;DHT22;7678;50.058;8.306;2022-12-18T04:06:59;-8.10;99.90
15156;DHT22;7678;50.058;8.306;2022-12-18T04:09:35;-7.70;99.90
15156;DHT22;7678;50.058;8.306;2022-12-18T04:12:06;-7.50;99.90
15156;DHT22;7678;50.058;8.306;2022-12-18T04:14:35;-7.40;99.90
15156;DHT22;7678;50.058;8.306;2022-12-18T04:17:07;-7.20;99.90
15156;DHT22;7678;50.058;8.306;2022-12-18T04:19:38;-7.10;99.90
15156;DHT22;7678;50.058;8.306;2022-12-18T04:22:09;-6.90;99.90
15156;DHT22;7678;50.058;8.306;2022-12-18T04:24:39;-6.70;99.90
15156;DHT22;7678;50.058;8.306;2022-12-18T04:27:09;-6.80;99.90
15156;DHT22;7678;50.058;8.306;2022-12-18T04:29:39;-6.70;99.90
15156;DHT22;7678;50.058;8.306;2022-12-18T04:32:09;-6.50;99.90
15156;DHT22;7678;50.058;8.306;2022-12-18T04:34:37;-6.50;99.90
15156;DHT22;7678;50.058;8.306;2022-12-18T04:37:05;-6.50;99.90
15156;DHT22;7678;50.058;8.306;2022-12-18T04:39:33;-6.30;99.90
15156;DHT22;7678;50.058;8.306;2022-12-18T04:42:05;-6.20;99.90
15156;DHT22;7678;50.058;8.306;2022-12-18T04:44:36;-6.30;99.90
15156;DHT22;7678;50.058;8.306;2022-12-18T04:47:06;-6.10;99.90
15156;DHT22;7678;50.058;8.306;2022-12-18T04:49:34;-6.00;99.90
15156;DHT22;7678;50.058;8.306;2022-12-18T04:52:02;-5.80;99.90
15156;DHT22;7678;50.058;8.306;2022-12-18T04:54:42;-5.90;99.90
15156;DHT22;7678;50.058;8.306;2022-12-18T04:57:13;-6.00;99.90
15156;DHT22;7678;50.058;8.306;2022-12-18T04:59:43;-6.10;99.90
15156;DHT22;7678;50.058;8.306;2022-12-18T05:02:15;-6.10;99.90
15156;DHT22;7678;50.058;8.306;2022-12-18T05:04:43;-6.10;99.90
15156;DHT22;7678;50.058;8.306;2022-12-18T05:07:15;-6.00;99.90
15156;DHT22;7678;50.058;8.306;2022-12-18T05:09:44;-5.90;99.90
15156;DHT22;7678;50.058;8.306;2022-12-18T05:12:12;-5.90;99.90
15156;DHT22;7678;50.058;8.306;2022-12-18T05:14:43;-5.80;99.90
15156;DHT22;7678;50.058;8.306;2022-12-18T05:17:11;-5.90;99.90
15156;DHT22;7678;50.058;8.306;2022-12-18T05:19:42;-6.00;99.90
15156;DHT22;7678;50.058;8.306;2022-12-18T05:22:12;-6.00;99.90
15156;DHT22;7678;50.058;8.306;2022-12-18T05:24:40;-5.90;99.90
15156;DHT22;7678;50.058;8.306;2022-12-18T05:27:10;-6.00;99.90
15156;DHT22;7678;50.058;8.306;2022-12-18T05:29:42;-6.10;99.90
15156;DHT22;7678;50.058;8.306;2022-12-18T05:32:12;-6.20;99.90
15156;DHT22;7678;50.058;8.306;2022-12-18T05:34:42;-6.00;99.90
15156;DHT22;7678;50.058;8.306;2022-12-18T05:37:10;-5.90;99.90
15156;DHT22;7678;50.058;8.306;2022-12-18T05:39:40;-6.00;99.90
15156;DHT22;7678;50.058;8.306;2022-12-18T05:42:12;-6.10;99.90
15156;DHT22;7678;50.058;8.306;2022-12-18T05:44:43;-5.90;99.90
15156;DHT22;7678;50.058;8.306;2022-12-18T05:47:11;-5.90;99.90
15156;DHT22;7678;50.058;8.306;2022-12-18T05:49:39;-5.90;99.90
15156;DHT22;7678;50.058;8.306;2022-12-18T05:52:09;-5.90;99.90
15156;DHT22;7678;50.058;8.306;2022-12-18T05:54:37;-6.00;99.90
15156;DHT22;7678;50.058;8.306;2022-12-18T05:57:09;-5.90;99.90
15156;DHT22;7678;50.058;8.306;2022-12-18T05:59:40;-6.00;99.90
15156;DHT22;7678;50.058;8.306;2022-12-18T06:02:10;-6.00;99.90
15156;DHT22;7678;50.058;8.306;2022-12-18T06:04:41;-6.00;99.90
15156;DHT22;7678;50.058;8.306;2022-12-18T06:07:11;-6.00;99.90
15156;DHT22;7678;50.058;8.306;2022-12-18T06:09:41;-6.10;99.90
15156;DHT22;7678;50.058;8.306;2022-12-18T06:12:09;-5.90;99.90
15156;DHT22;7678;50.058;8.306;2022-12-18T06:14:44;-5.90;99.90
15156;DHT22;7678;50.058;8.306;2022-12-18T06:17:12;-6.00;99.90
15156;DHT22;7678;50.058;8.306;2022-12-18T06:19:46;-5.90;99.90
15156;DHT22;7678;50.058;8.306;2022-12-18T06:22:18;-5.90;99.90
15156;DHT22;7678;50.058;8.306;2022-12-18T06:24:46;-5.90;99.90
15156;DHT22;7678;50.058;8.306;2022-12-18T06:27:17;-5.80;99.90
15156;DHT22;7678;50.058;8.306;2022-12-18T06:29:47;-5.90;99.90
15156;DHT22;7678;50.058;8.306;2022-12-18T06:32:15;-6.00;99.90
15156;DHT22;7678;50.058;8.306;2022-12-18T06:34:47;-6.00;99.90
15156;DHT22;7678;50.058;8.306;2022-12-18T06:37:20;-6.00;99.90
15156;DHT22;7678;50.058;8.306;2022-12-18T06:39:51;-6.10;99.90
15156;DHT22;7678;50.058;8.306;2022-12-18T06:42:19;-5.90;99.90
15156;DHT22;7678;50.058;8.306;2022-12-18T06:44:50;-6.00;99.90
15156;DHT22;7678;50.058;8.306;2022-12-18T06:47:21;-5.90;99.90
15156;DHT22;7678;50.058;8.306;2022-12-18T06:49:51;-6.00;99.90
15156;DHT22;7678;50.058;8.306;2022-12-18T06:52:20;-6.00;99.90
15156;DHT22;7678;50.058;8.306;2022-12-18T06:54:48;-6.10;99.90
15156;DHT22;7678;50.058;8.306;2022-12-18T06:57:16;-6.00;99.90
15156;DHT22;7678;50.058;8.306;2022-12-18T06:59:44;-6.00;99.90
15156;DHT22;7678;50.058;8.306;2022-12-18T07:02:12;-5.90;99.90
15156;DHT22;7678;50.058;8.306;2022-12-18T07:04:41;-6.00;99.90
15156;DHT22;7678;50.058;8.306;2022-12-18T07:07:09;-6.00;99.90
15156;DHT22;7678;50.058;8.306;2022-12-18T07:09:40;-6.00;99.90
15156;DHT22;7678;50.058;8.306;2022-12-18T07:12:08;-6.00;99.90
15156;DHT22;7678;50.058;8.306;2022-12-18T07:14:38;-5.80;99.90
15156;DHT22;7678;50.058;8.306;2022-12-18T07:17:06;-5.60;99.90
15156;DHT22;7678;50.058;8.306;2022-12-18T07:19:34;-5.80;99.90
15156;DHT22;7678;50.058;8.306;2022-12-18T07:22:02;-5.70;99.90
15156;DHT22;7678;50.058;8.306;2022-12-18T07:24:30;-5.90;99.90
15156;DHT22;7678;50.058;8.306;2022-12-18T07:27:01;-6.00;99.90
15156;DHT22;7678;50.058;8.306;2022-12-18T07:29:29;-6.10;99.90
15156;DHT22;7678;50.058;8.306;2022-12-18T07:31:57;-6.10;99.90
15156;DHT22;7678;50.058;8.306;2022-12-18T07:34:25;-6.10;99.90
15156;DHT22;7678;50.058;8.306;2022-12-18T07:36:53;-6.20;99.90
15156;DHT22;7678;50.058;8.306;2022-12-18T07:39:23;-6.20;99.90
15156;DHT22;7678;50.058;8.306;2022-12-18T07:41:51;-6.20;99.90
15156;DHT22;7678;50.058;8.306;2022-12-18T07:44:34;-6.10;99.90
15156;DHT22;7678;50.058;8.306;2022-12-18T07:47:02;-6.10;99.90
15156;DHT22;7678;50.058;8.306;2022-12-18T07:49:37;-6.30;99.90
15156;DHT22;7678;50.058;8.306;2022-12-18T07:52:09;-6.60;99.90
15156;DHT22;7678;50.058;8.306;2022-12-18T07:54:41;-6.80;99.90
15156;DHT22;7678;50.058;8.306;2022-12-18T07:57:11;-6.90;99.90
15156;DHT22;7678;50.058;8.306;2022-12-18T08:00:04;-6.90;99.90
15156;DHT22;7678;50.058;8.306;2022-12-18T08:02:32;-7.00;99.90
15156;DHT22;7678;50.058;8.306;2022-12-18T08:05:01;-7.00;99.90
15156;DHT22;7678;50.058;8.306;2022-12-18T08:07:29;-7.10;99.90
15156;DHT22;7678;50.058;8.306;2022-12-18T08:09:59;-7.10;99.90
15156;DHT22;7678;50.058;8.306;2022-12-18T08:12:27;-7.20;99.90
15156;DHT22;7678;50.058;8.306;2022-12-18T08:14:55;-7.30;99.90
15156;DHT22;7678;50.058;8.306;2022-12-18T08:17:25;-7.40;99.90
15156;DHT22;7678;50.058;8.306;2022-12-18T08:19:53;-7.30;99.90
15156;DHT22;7678;50.058;8.306;2022-12-18T08:22:21;-7.40;99.90
15156;DHT22;7678;50.058;8.306;2022-12-18T08:24:49;-7.50;99.90
15156;DHT22;7678;50.058;8.306;2022-12-18T08:27:22;-7.50;99.90
15156;DHT22;7678;50.058;8.306;2022-12-18T08:29:58;-7.40;99.90
15156;DHT22;7678;50.058;8.306;2022-12-18T08:32:27;-7.30;99.90
15156;DHT22;7678;50.058;8.306;2022-12-18T08:34:55;-7.20;99.90
15156;DHT22;7678;50.058;8.306;2022-12-18T08:37:24;-7.10;99.90
15156;DHT22;7678;50.058;8.306;2022-12-18T08:39:52;-7.10;99.90
15156;DHT22;7678;50.058;8.306;2022-12-18T08:42:22;-7.10;99.90
15156;DHT22;7678;50.058;8.306;2022-12-18T08:45:08;-6.90;99.90
15156;DHT22;7678;50.058;8.306;2022-12-18T08:47:38;-7.00;99.90
15156;DHT22;7678;50.058;8.306;2022-12-18T08:50:06;-6.90;99.90
15156;DHT22;7678;50.058;8.306;2022-12-18T08:52:36;-6.80;99.90
15156;DHT22;7678;50.058;8.306;2022-12-18T08:55:05;-6.70;99.90
15156;DHT22;7678;50.058;8.306;2022-12-18T08:57:33;-6.60;99.90
15156;DHT22;7678;50.058;8.306;2022-12-18T09:00:01;-6.50;99.90
15156;DHT22;7678;50.058;8.306;2022-12-18T09:02:31;-6.40;99.90
15156;DHT22;7678;50.058;8.306;2022-12-18T09:05:01;-6.40;99.90
15156;DHT22;7678;50.058;8.306;2022-12-18T09:07:29;-6.30;99.90
15156;DHT22;7678;50.058;8.306;2022-12-18T09:09:58;-6.20;99.90
15156;DHT22;7678;50.058;8.306;2022-12-18T09:12:26;-6.10;99.90
15156;DHT22;7678;50.058;8.306;2022-12-18T09:14:54;-6.10;99.90
15156;DHT22;7678;50.058;8.306;2022-12-18T09:17:23;-6.10;99.90
15156;DHT22;7678;50.058;8.306;2022-12-18T09:19:51;-6.10;99.90
15156;DHT22;7678;50.058;8.306;2022-12-18T09:22:21;-6.00;99.90
15156;DHT22;7678;50.058;8.306;2022-12-18T09:24:49;-5.90;99.90
15156;DHT22;7678;50.058;8.306;2022-12-18T09:27:19;-5.80;99.90
15156;DHT22;7678;50.058;8.306;2022-12-18T09:29:48;-5.80;99.90
15156;DHT22;7678;50.058;8.306;2022-12-18T09:32:16;-5.60;99.90
15156;DHT22;7678;50.058;8.306;2022-12-18T09:34:48;-5.50;99.90
15156;DHT22;7678;50.058;8.306;2022-12-18T09:37:18;-5.40;99.90
15156;DHT22;7678;50.058;8.306;2022-12-18T09:39:47;-5.40;99.90
15156;DHT22;7678;50.058;8.306;2022-12-18T09:42:20;-5.40;99.90
15156;DHT22;7678;50.058;8.306;2022-12-18T09:44:50;-5.40;99.90
15156;DHT22;7678;50.058;8.306;2022-12-18T09:47:23;-5.40;99.90
15156;DHT22;7678;50.058;8.306;2022-12-18T09:49:56;-5.30;99.90
15156;DHT22;7678;50.058;8.306;2022-12-18T09:52:28;-5.20;99.90
15156;DHT22;7678;50.058;8.306;2022-12-18T09:55:02;-5.30;99.90
15156;DHT22;7678;50.058;8.306;2022-12-18T09:57:35;-5.20;99.90
15156;DHT22;7678;50.058;8.306;2022-12-18T10:00:17;-5.10;99.90
15156;DHT22;7678;50.058;8.306;2022-12-18T10:02:47;-5.10;99.90
15156;DHT22;7678;50.058;8.306;2022-12-18T10:05:20;-5.20;99.90
15156;DHT22;7678;50.058;8.306;2022-12-18T10:07:58;-5.10;99.90
15156;DHT22;7678;50.058;8.306;2022-12-18T10:10:34;-5.10;99.90
15156;DHT22;7678;50.058;8.306;2022-12-18T10:13:15;-5.10;99.90
15156;DHT22;7678;50.058;8.306;2022-12-18T10:16:06;-4.90;99.90
15156;DHT22;7678;50.058;8.306;2022-12-18T10:18:53;-4.70;99.90
15156;DHT22;7678;50.058;8.306;2022-12-18T10:21:30;-4.70;99.90
15156;DHT22;7678;50.058;8.306;2022-12-18T10:24:03;-4.70;99.90
15156;DHT22;7678;50.058;8.306;2022-12-18T10:26:34;-4.80;99.90
15156;DHT22;7678;50.058;8.306;2022-12-18T10:29:09;-4.90;99.90
15156;DHT22;7678;50.058;8.306;2022-12-18T10:31:38;-4.90;99.90
15156;DHT22;7678;50.058;8.306;2022-12-18T10:34:09;-4.90;99.90
15156;DHT22;7678;50.058;8.306;2022-12-18T10:36:37;-4.90;99.90
15156;DHT22;7678;50.058;8.306;2022-12-18T10:39:16;-4.80;99.90
15156;DHT22;7678;50.058;8.306;2022-12-18T10:41:46;-4.80;99.90
15156;DHT22;7678;50.058;8.306;2022-12-18T10:44:18;-4.80;99.90
15156;DHT22;7678;50.058;8.306;2022-12-18T10:46:48;-4.80;99.90
15156;DHT22;7678;50.058;8.306;2022-12-18T10:49:23;-4.70;99.90
15156;DHT22;7678;50.058;8.306;2022-12-18T10:51:52;-4.70;99.90
15156;DHT22;7678;50.058;8.306;2022-12-18T10:54:34;-4.70;99.90
15156;DHT22;7678;50.058;8.306;2022-12-18T10:57:16;-4.70;99.90
15156;DHT22;7678;50.058;8.306;2022-12-18T10:59:54;-4.60;99.90
15156;DHT22;7678;50.058;8.306;2022-12-18T11:02:28;-4.60;99.90
15156;DHT22;7678;50.058;8.306;2022-12-18T11:05:01;-4.70;99.90
15156;DHT22;7678;50.058;8.306;2022-12-18T11:07:47;-4.50;99.90
15156;DHT22;7678;50.058;8.306;2022-12-18T11:10:17;-4.50;99.90
15156;DHT22;7678;50.058;8.306;2022-12-18T11:12:48;-4.50;99.90
15156;DHT22;7678;50.058;8.306;2022-12-18T11:15:18;-4.40;99.90
15156;DHT22;7678;50.058;8.306;2022-12-18T11:17:49;-4.40;99.90
15156;DHT22;7678;50.058;8.306;2022-12-18T11:20:26;-4.40;99.90
15156;DHT22;7678;50.058;8.306;2022-12-18T11:22:59;-4.30;99.90
15156;DHT22;7678;50.058;8.306;2022-12-18T11:25:28;-4.20;99.90
15156;DHT22;7678;50.058;8.306;2022-12-18T11:28:02;-4.20;99.90
15156;DHT22;7678;50.058;8.306;2022-12-18T11:30:32;-4.20;99.90
15156;DHT22;7678;50.058;8.306;2022-12-18T11:33:04;-4.30;99.90
15156;DHT22;7678;50.058;8.306;2022-12-18T11:35:42;-4.50;99.90
15156;DHT22;7678;50.058;8.306;2022-12-18T11:38:19;-4.50;99.90
15156;DHT22;7678;50.058;8.306;2022-12-18T11:40:53;-4.50;99.90
15156;DHT22;7678;50.058;8.306;2022-12-18T11:43:29;-4.50;99.90
15156;DHT22;7678;50.058;8.306;2022-12-18T11:46:02;-4.50;99.90
15156;DHT22;7678;50.058;8.306;2022-12-18T11:48:34;-4.50;99.90
15156;DHT22;7678;50.058;8.306;2022-12-18T11:51:13;-4.40;99.90
15156;DHT22;7678;50.058;8.306;2022-12-18T11:53:44;-4.30;99.90
15156;DHT22;7678;50.058;8.306;2022-12-18T11:56:26;-4.30;99.90
15156;DHT22;7678;50.058;8.306;2022-12-18T11:59:00;-4.30;99.90
15156;DHT22;7678;50.058;8.306;2022-12-18T12:01:42;-4.30;99.90
15156;DHT22;7678;50.058;8.306;2022-12-18T12:04:28;-4.20;99.90
15156;DHT22;7678;50.058;8.306;2022-12-18T12:07:11;-4.20;99.90
15156;DHT22;7678;50.058;8.306;2022-12-18T12:09:46;-4.40;99.90
15156;DHT22;7678;50.058;8.306;2022-12-18T12:12:31;-4.40;99.90
15156;DHT22;7678;50.058;8.306;2022-12-18T12:15:25;-4.20;99.90
15156;DHT22;7678;50.058;8.306;2022-12-18T12:18:00;-4.10;99.90
15156;DHT22;7678;50.058;8.306;2022-12-18T12:20:51;-4.10;99.90
15156;DHT22;7678;50.058;8.306;2022-12-18T12:23:28;-4.20;99.90
15156;DHT22;7678;50.058;8.306;2022-12-18T12:26:02;-4.30;99.90
15156;DHT22;7678;50.058;8.306;2022-12-18T12:28:56;-4.30;99.90
15156;DHT22;7678;50.058;8.306;2022-12-18T12:31:40;-4.30;99.90
15156;DHT22;7678;50.058;8.306;2022-12-18T12:34:17;-4.30;99.90
15156;DHT22;7678;50.058;8.306;2022-12-18T12:37:03;-4.20;99.90
15156;DHT22;7678;50.058;8.306;2022-12-18T12:39:37;-4.30;99.90
15156;DHT22;7678;50.058;8.306;2022-12-18T12:42:10;-4.30;99.90
15156;DHT22;7678;50.058;8.306;2022-12-18T12:44:58;-4.30;99.90
15156;DHT22;7678;50.058;8.306;2022-12-18T12:47:35;-4.30;99.90
15156;DHT22;7678;50.058;8.306;2022-12-18T12:50:16;-4.30;99.90
15156;DHT22;7678;50.058;8.306;2022-12-18T12:52:47;-4.20;99.90
15156;DHT22;7678;50.058;8.306;2022-12-18T12:55:19;-4.40;99.90
15156;DHT22;7678;50.058;8.306;2022-12-18T12:57:57;-4.30;99.90
15156;DHT22;7678;50.058;8.306;2022-12-18T13:00:34;-4.20;99.90
15156;DHT22;7678;50.058;8.306;2022-12-18T13:03:13;-4.30;99.90
15156;DHT22;7678;50.058;8.306;2022-12-18T13:05:48;-4.20;99.90
15156;DHT22;7678;50.058;8.306;2022-12-18T13:08:28;-4.00;99.90
15156;DHT22;7678;50.058;8.306;2022-12-18T13:11:04;-4.30;99.90
15156;DHT22;7678;50.058;8.306;2022-12-18T13:14:02;-4.30;99.90
15156;DHT22;7678;50.058;8.306;2022-12-18T13:16:33;-4.20;99.90
15156;DHT22;7678;50.058;8.306;2022-12-18T13:19:03;-4.20;99.90
15156;DHT22;7678;50.058;8.306;2022-12-18T13:21:33;-4.20;99.90
15156;DHT22;7678;50.058;8.306;2022-12-18T13:24:15;-4.10;99.90
15156;DHT22;7678;50.058;8.306;2022-12-18T13:26:47;-4.30;99.90
15156;DHT22;7678;50.058;8.306;2022-12-18T13:29:41;-4.40;99.90
15156;DHT22;7678;50.058;8.306;2022-12-18T13:32:23;-4.20;99.90
15156;DHT22;7678;50.058;8.306;2022-12-18T13:35:39;-4.30;99.90
15156;DHT22;7678;50.058;8.306;2022-12-18T13:38:20;-4.40;99.90
15156;DHT22;7678;50.058;8.306;2022-12-18T13:40:55;-4.40;99.90
15156;DHT22;7678;50.058;8.306;2022-12-18T13:43:31;-4.50;99.90
15156;DHT22;7678;50.058;8.306;2022-12-18T13:46:06;-4.40;99.90
15156;DHT22;7678;50.058;8.306;2022-12-18T13:48:54;-4.40;99.90
15156;DHT22;7678;50.058;8.306;2022-12-18T13:51:25;-4.30;99.90
15156;DHT22;7678;50.058;8.306;2022-12-18T13:53:55;-4.50;99.90
15156;DHT22;7678;50.058;8.306;2022-12-18T13:56:29;-4.30;99.90
15156;DHT22;7678;50.058;8.306;2022-12-18T13:59:13;-4.30;99.90
15156;DHT22;7678;50.058;8.306;2022-12-18T14:01:47;-4.50;99.90
15156;DHT22;7678;50.058;8.306;2022-12-18T14:04:24;-4.50;99.90
15156;DHT22;7678;50.058;8.306;2022-12-18T14:06:57;-4.40;99.90
15156;DHT22;7678;50.058;8.306;2022-12-18T14:09:29;-4.50;99.90
15156;DHT22;7678;50.058;8.306;2022-12-18T14:11:59;-4.50;99.90
15156;DHT22;7678;50.058;8.306;2022-12-18T14:14:50;-4.50;99.90
15156;DHT22;7678;50.058;8.306;2022-12-18T14:17:21;-4.50;99.90
15156;DHT22;7678;50.058;8.306;2022-12-18T14:19:50;-4.50;99.90
15156;DHT22;7678;50.058;8.306;2022-12-18T14:22:21;-4.50;99.90
15156;DHT22;7678;50.058;8.306;2022-12-18T14:25:13;-4.50;99.90
15156;DHT22;7678;50.058;8.306;2022-12-18T14:27:44;-4.60;99.90
15156;DHT22;7678;50.058;8.306;2022-12-18T14:30:29;-4.50;99.90
15156;DHT22;7678;50.058;8.306;2022-12-18T14:33:02;-4.50;99.90
15156;DHT22;7678;50.058;8.306;2022-12-18T14:35:30;-4.50;99.90
15156;DHT22;7678;50.058;8.306;2022-12-18T14:38:24;-4.50;99.90
15156;DHT22;7678;50.058;8.306;2022-12-18T14:40:53;-4.50;99.90
15156;DHT22;7678;50.058;8.306;2022-12-18T14:43:32;-4.60;99.90
15156;DHT22;7678;50.058;8.306;2022-12-18T14:46:00;-4.60;99.90
15156;DHT22;7678;50.058;8.306;2022-12-18T14:48:37;-4.60;99.90
15156;DHT22;7678;50.058;8.306;2022-12-18T14:51:14;-4.60;99.90
15156;DHT22;7678;50.058;8.306;2022-12-18T14:53:46;-4.60;99.90
15156;DHT22;7678;50.058;8.306;2022-12-18T14:56:27;-4.50;99.90
15156;DHT22;7678;50.058;8.306;2022-12-18T14:58:58;-4.60;99.90
15156;DHT22;7678;50.058;8.306;2022-12-18T15:01:29;-4.60;99.90
15156;DHT22;7678;50.058;8.306;2022-12-18T15:04:00;-4.60;99.90
15156;DHT22;7678;50.058;8.306;2022-12-18T15:06:31;-4.60;99.90
15156;DHT22;7678;50.058;8.306;2022-12-18T15:09:02;-4.60;99.90
15156;DHT22;7678;50.058;8.306;2022-12-18T15:11:43;-4.60;99.90
15156;DHT22;7678;50.058;8.306;2022-12-18T15:14:31;-4.60;99.90
15156;DHT22;7678;50.058;8.306;2022-12-18T15:17:06;-4.60;99.90
15156;DHT22;7678;50.058;8.306;2022-12-18T15:19:43;-4.60;99.90
15156;DHT22;7678;50.058;8.306;2022-12-18T15:22:26;-4.60;99.90
15156;DHT22;7678;50.058;8.306;2022-12-18T15:24:57;-4.60;99.90
15156;DHT22;7678;50.058;8.306;2022-12-18T15:27:31;-4.70;99.90
15156;DHT22;7678;50.058;8.306;2022-12-18T15:30:21;-4.60;99.90
15156;DHT22;7678;50.058;8.306;2022-12-18T15:32:51;-4.60;99.90
15156;DHT22;7678;50.058;8.306;2022-12-18T15:35:21;-4.60;99.90
15156;DHT22;7678;50.058;8.306;2022-12-18T15:37:51;-4.60;99.90
15156;DHT22;7678;50.058;8.306;2022-12-18T15:40:22;-4.60;99.90
15156;DHT22;7678;50.058;8.306;2022-12-18T15:42:53;-4.60;99.90
15156;DHT22;7678;50.058;8.306;2022-12-18T15:45:41;-4.70;99.90
15156;DHT22;7678;50.058;8.306;2022-12-18T15:48:17;-4.60;99.90
15156;DHT22;7678;50.058;8.306;2022-12-18T15:50:46;-4.60;99.90
15156;DHT22;7678;50.058;8.306;2022-12-18T15:53:17;-4.60;99.90
15156;DHT22;7678;50.058;8.306;2022-12-18T15:55:46;-4.60;99.90
15156;DHT22;7678;50.058;8.306;2022-12-18T15:58:34;-4.70;99.90
15156;DHT22;7678;50.058;8.306;2022-12-18T16:01:02;-4.60;99.90
15156;DHT22;7678;50.058;8.306;2022-12-18T16:03:30;-4.60;99.90
15156;DHT22;7678;50.058;8.306;2022-12-18T16:05:59;-4.60;99.90
15156;DHT22;7678;50.058;8.306;2022-12-18T16:08:29;-4.60;99.90
15156;DHT22;7678;50.058;8.306;2022-12-18T16:11:00;-4.50;99.90
15156;DHT22;7678;50.058;8.306;2022-12-18T16:13:28;-4.50;99.90
15156;DHT22;7678;50.058;8.306;2022-12-18T16:15:56;-4.50;99.90
15156;DHT22;7678;50.058;8.306;2022-12-18T16:18:24;-4.50;99.90
15156;DHT22;7678;50.058;8.306;2022-12-18T16:20:52;-4.50;99.90